Time;durP1;ratioP1;P1;durP2;ratioP2;P2;SDS_P1;SDS_P2;PMS_P1;PMS_P2;Temp;Humidity;BMP_temperature;BMP_pressure;BME280_temperature;BME280_humidity;BME280_pressure;Samples;Min_cycle;Max_cycle;Signal;HPM_P1;HPM_P2
2023/01/01 00:00:23;;;;;;;1999.90;719.30;;;12.30;99.90;;;;;;5051048;28;20307;-51
2023/01/01 00:02:51;;;;;;;1999.90;961.13;;;12.30;99.90;;;;;;5051586;28;20213;-51
2023/01/01 00:05:19;;;;;;;1999.90;725.50;;;12.40;99.90;;;;;;5051758;28;20257;-53
2023/01/01 00:07:47;;;;;;;1999.90;999.90;;;12.30;99.90;;;;;;5044495;28;20366;-52
2023/01/01 00:10:27;;;;;;;1999.90;644.73;;;12.20;99.90;;;;;;5044483;28;20205;-52
2023/01/01 00:12:57;;;;;;;1999.90;834.30;;;12.30;99.90;;;;;;5045156;28;20210;-51
2023/01/01 00:15:27;;;;;;;1999.90;577.90;;;12.30;99.90;;;;;;5050330;28;20757;-52
2023/01/01 00:17:56;;;;;;;1999.90;902.77;;;12.30;99.90;;;;;;5052004;28;20585;-51
2023/01/01 00:20:24;;;;;;;1999.90;595.57;;;12.30;99.90;;;;;;5049229;28;20209;-52
2023/01/01 00:23:01;;;;;;;1999.90;627.17;;;12.30;99.90;;;;;;5046570;28;20202;-51
2023/01/01 00:25:31;;;;;;;1999.90;687.47;;;12.20;99.90;;;;;;5040924;28;20238;-51
2023/01/01 00:28:01;;;;;;;1999.90;595.93;;;12.20;99.90;;;;;;5051490;28;20216;-51
2023/01/01 00:30:29;;;;;;;1999.90;587.83;;;12.30;99.90;;;;;;5052214;28;20287;-51
2023/01/01 00:32:58;;;;;;;1999.90;517.97;;;12.20;99.90;;;;;;5044655;28;20805;-51
2023/01/01 00:35:26;;;;;;;1999.90;972.10;;;12.20;99.90;;;;;;5048440;28;20260;-51
2023/01/01 00:37:55;;;;;;;1999.90;628.17;;;12.20;99.90;;;;;;5049723;28;20289;-52
2023/01/01 00:40:23;;;;;;;1999.90;599.90;;;12.20;99.90;;;;;;5045117;28;20252;-52
2023/01/01 00:42:52;;;;;;;1999.90;711.77;;;12.20;99.90;;;;;;5044788;28;20198;-51
2023/01/01 00:45:21;;;;;;;1999.90;584.77;;;12.20;99.90;;;;;;5036466;28;20257;-52
2023/01/01 00:47:50;;;;;;;1999.90;545.33;;;12.10;99.90;;;;;;5048371;28;20206;-51
2023/01/01 00:50:19;;;;;;;1999.90;527.70;;;12.10;99.90;;;;;;5048680;28;20209;-51
2023/01/01 00:52:47;;;;;;;1999.90;709.23;;;12.10;99.90;;;;;;5047715;28;20255;-51
2023/01/01 00:55:16;;;;;;;1999.90;564.97;;;12.10;99.90;;;;;;5036178;28;20230;-51
2023/01/01 00:57:44;;;;;;;1893.70;401.77;;;12.00;99.90;;;;;;5045894;28;20230;-51
2023/01/01 01:00:14;;;;;;;1999.90;573.33;;;12.00;99.90;;;;;;5049596;28;20213;-51
2023/01/01 01:02:43;;;;;;;1999.90;674.13;;;12.00;99.90;;;;;;5047655;28;20228;-51
2023/01/01 01:05:12;;;;;;;1999.90;999.90;;;11.90;99.90;;;;;;5050336;28;20218;-51
2023/01/01 01:07:40;;;;;;;1999.90;665.60;;;12.00;99.90;;;;;;5050467;28;20252;-51
2023/01/01 01:10:10;;;;;;;1999.90;544.63;;;11.90;99.90;;;;;;5042408;28;20210;-51
2023/01/01 01:12:39;;;;;;;1896.97;383.37;;;11.80;99.90;;;;;;5034169;28;20193;-51
2023/01/01 01:15:09;;;;;;;1668.37;410.37;;;11.80;99.90;;;;;;5040241;28;20311;-51
2023/01/01 01:17:37;;;;;;;1999.90;683.17;;;11.70;99.90;;;;;;5050933;28;20214;-51
2023/01/01 01:20:08;;;;;;;1999.90;749.67;;;11.80;99.90;;;;;;5050691;28;20205;-51
2023/01/01 01:22:37;;;;;;;1999.90;546.43;;;11.80;99.90;;;;;;5047456;28;20660;-51
2023/01/01 01:25:07;;;;;;;1827.83;367.37;;;11.80;99.90;;;;;;5051174;28;20249;-52
2023/01/01 01:27:36;;;;;;;1999.90;999.90;;;11.80;99.90;;;;;;5050789;28;20292;-50
2023/01/01 01:30:05;;;;;;;1435.57;384.07;;;11.80;99.90;;;;;;5036857;28;20234;-51
2023/01/01 01:32:33;;;;;;;1999.90;468.20;;;11.80;99.90;;;;;;5050130;28;20205;-51
2023/01/01 01:35:01;;;;;;;1999.90;588.80;;;11.80;99.90;;;;;;5049189;28;20248;-51
2023/01/01 01:37:31;;;;;;;1999.90;497.83;;;11.70;99.90;;;;;;5050015;28;20206;-51
2023/01/01 01:39:59;;;;;;;1999.90;548.80;;;11.70;99.90;;;;;;5050427;28;20763;-52
2023/01/01 01:42:27;;;;;;;1999.90;594.10;;;11.70;99.90;;;;;;5049703;28;20205;-51
2023/01/01 01:44:57;;;;;;;1999.90;492.47;;;11.70;99.90;;;;;;5044322;28;20252;-51
2023/01/01 01:47:31;;;;;;;1999.90;534.30;;;11.60;99.90;;;;;;5050504;28;20201;-51
2023/01/01 01:50:04;;;;;;;1999.90;661.30;;;11.60;99.90;;;;;;5049981;28;20209;-51
2023/01/01 01:52:36;;;;;;;1999.90;469.50;;;11.50;99.90;;;;;;5041973;28;20210;-51
2023/01/01 01:55:06;;;;;;;1999.90;792.50;;;11.40;99.90;;;;;;5050187;28;20261;-51
2023/01/01 01:57:35;;;;;;;1999.90;690.67;;;11.30;99.90;;;;;;5050014;28;20289;-51
2023/01/01 02:00:05;;;;;;;1999.90;646.37;;;11.20;99.90;;;;;;5050111;28;20206;-51
2023/01/01 02:02:43;;;;;;;1682.47;339.10;;;11.10;99.90;;;;;;5049857;28;20994;-52
2023/01/01 02:05:12;;;;;;;1999.90;427.23;;;11.10;99.90;;;;;;5050135;28;20225;-52
2023/01/01 02:07:42;;;;;;;1999.90;515.03;;;11.00;99.90;;;;;;5049681;28;20259;-51
2023/01/01 02:10:10;;;;;;;1888.70;383.63;;;10.90;99.90;;;;;;5049994;28;20201;-51
2023/01/01 02:12:38;;;;;;;1999.90;395.37;;;10.90;99.90;;;;;;5049498;28;20241;-51
2023/01/01 02:15:08;;;;;;;1999.90;516.13;;;10.80;99.90;;;;;;5049424;28;20237;-52
2023/01/01 02:17:43;;;;;;;1263.07;252.40;;;10.80;99.90;;;;;;5049256;28;20683;-51
2023/01/01 02:20:28;;;;;;;1999.90;459.93;;;10.80;99.90;;;;;;5050031;28;20241;-50
2023/01/01 02:23:28;;;;;;;1999.90;427.60;;;10.80;99.90;;;;;;5049434;28;20205;-52
2023/01/01 02:26:16;;;;;;;1999.90;626.53;;;10.80;99.90;;;;;;5045568;28;20302;-52
2023/01/01 02:28:54;;;;;;;1661.00;276.70;;;10.80;99.90;;;;;;5049486;28;20221;-52
2023/01/01 02:31:28;;;;;;;1292.17;284.73;;;10.70;99.90;;;;;;5048850;28;20695;-51
2023/01/01 02:34:01;;;;;;;1970.67;366.40;;;10.70;99.90;;;;;;5049371;28;20267;-52
2023/01/01 02:36:32;;;;;;;1999.90;439.73;;;10.70;99.90;;;;;;5049141;28;20265;-51
2023/01/01 02:39:03;;;;;;;1999.90;448.30;;;10.60;99.90;;;;;;5049250;28;20676;-52
2023/01/01 02:41:36;;;;;;;1507.47;395.23;;;10.70;99.90;;;;;;5048213;28;20217;-51
2023/01/01 02:44:06;;;;;;;1999.90;640.90;;;10.60;99.90;;;;;;5048962;28;20209;-51
2023/01/01 02:46:35;;;;;;;1941.40;397.97;;;10.70;99.90;;;;;;5048872;28;20248;-51
2023/01/01 02:49:04;;;;;;;1999.90;485.83;;;10.70;99.90;;;;;;5049111;28;20271;-52
2023/01/01 02:51:48;;;;;;;1999.90;394.80;;;10.70;99.90;;;;;;5049272;28;20210;-51
2023/01/01 02:54:27;;;;;;;1999.90;829.73;;;10.70;99.90;;;;;;5049025;28;20237;-51
2023/01/01 02:57:04;;;;;;;1353.73;328.83;;;10.80;99.90;;;;;;5049396;28;20674;-51
2023/01/01 03:02:41;;;;;;;1999.90;427.67;;;10.80;99.90;;;;;;5048626;28;20292;-51
2023/01/01 03:05:21;;;;;;;1096.37;192.03;;;10.90;99.90;;;;;;5049208;28;20304;-52
2023/01/01 03:08:02;;;;;;;1426.43;339.50;;;10.90;99.90;;;;;;5049156;28;20259;-52
2023/01/01 03:10:36;;;;;;;1999.90;692.60;;;10.90;99.90;;;;;;5049229;28;20282;-51
2023/01/01 03:13:14;;;;;;;1897.03;413.33;;;10.80;99.90;;;;;;5048175;28;20209;-50
2023/01/01 03:15:51;;;;;;;1999.90;472.00;;;10.80;99.90;;;;;;5048977;28;20237;-50
2023/01/01 03:18:26;;;;;;;1999.90;532.13;;;10.80;99.90;;;;;;5049506;28;20215;-51
2023/01/01 03:20:59;;;;;;;1999.90;435.30;;;10.80;99.90;;;;;;5048487;28;20332;-51
2023/01/01 03:23:34;;;;;;;1999.90;508.07;;;10.80;99.90;;;;;;5048356;28;20291;-51
2023/01/01 03:26:08;;;;;;;1999.90;566.43;;;10.80;99.90;;;;;;5048845;28;20300;-51
2023/01/01 03:28:41;;;;;;;1999.90;535.73;;;10.70;99.90;;;;;;5049040;28;20559;-51
2023/01/01 03:31:13;;;;;;;1999.90;573.17;;;10.80;99.90;;;;;;5048483;28;20832;-52
2023/01/01 03:33:47;;;;;;;1999.90;486.77;;;10.70;99.90;;;;;;5049083;28;20234;-51
2023/01/01 03:36:19;;;;;;;1999.90;577.87;;;10.70;99.90;;;;;;5047814;28;20752;-51
2023/01/01 03:38:51;;;;;;;1999.90;497.57;;;10.80;99.90;;;;;;5049242;28;20293;-50
2023/01/01 03:41:26;;;;;;;1999.90;405.77;;;10.80;99.90;;;;;;5048713;28;20237;-50
2023/01/01 03:44:01;;;;;;;1999.90;671.90;;;10.90;99.90;;;;;;5048240;28;20759;-51
2023/01/01 03:46:34;;;;;;;1257.13;306.13;;;10.90;99.90;;;;;;5048653;28;20263;-51
2023/01/01 03:49:05;;;;;;;1982.50;381.90;;;11.00;99.90;;;;;;5047920;28;20284;-51
2023/01/01 03:51:51;;;;;;;1969.37;380.43;;;11.00;99.90;;;;;;5048632;28;20758;-51
2023/01/01 03:54:35;;;;;;;1999.90;691.07;;;11.10;99.90;;;;;;5047260;28;20296;-51
2023/01/01 03:57:11;;;;;;;1999.90;510.83;;;11.10;99.90;;;;;;5045171;28;20637;-51
2023/01/01 03:59:48;;;;;;;1999.90;467.60;;;11.10;99.90;;;;;;5043307;28;20212;-51
2023/01/01 04:02:21;;;;;;;1468.23;319.70;;;11.20;99.90;;;;;;5046657;28;20229;-51
2023/01/01 04:04:49;;;;;;;1999.90;723.33;;;11.20;99.90;;;;;;5047770;28;20233;-52
2023/01/01 04:07:18;;;;;;;1999.90;694.90;;;11.20;99.90;;;;;;5036583;28;20232;-51
2023/01/01 04:09:49;;;;;;;1999.90;528.20;;;11.30;99.90;;;;;;5047230;28;20245;-51
2023/01/01 04:12:19;;;;;;;1956.53;391.47;;;11.30;99.90;;;;;;5044615;28;20242;-52
2023/01/01 04:14:47;;;;;;;1999.90;404.43;;;11.20;99.90;;;;;;5051827;28;20256;-52
2023/01/01 04:17:17;;;;;;;1999.90;463.70;;;11.20;99.90;;;;;;5051471;28;20727;-52
2023/01/01 04:19:45;;;;;;;1857.57;364.60;;;11.20;99.90;;;;;;5041939;28;20197;-52
2023/01/01 04:22:22;;;;;;;1999.90;844.57;;;11.20;99.90;;;;;;5049523;28;20209;-51
2023/01/01 04:24:50;;;;;;;1999.90;513.70;;;11.20;99.90;;;;;;5052079;28;20225;-49
2023/01/01 04:27:18;;;;;;;1999.90;573.77;;;11.20;99.90;;;;;;5050898;28;20728;-51
2023/01/01 04:29:47;;;;;;;1999.90;603.60;;;11.20;99.90;;;;;;5038517;28;20213;-51
2023/01/01 04:32:15;;;;;;;1999.90;823.17;;;11.10;99.90;;;;;;5051395;28;20206;-51
2023/01/01 04:34:44;;;;;;;1999.90;424.83;;;11.10;99.90;;;;;;5051941;28;20257;-51
2023/01/01 04:37:12;;;;;;;1999.90;632.13;;;11.10;99.90;;;;;;5051383;28;20733;-51
2023/01/01 04:39:40;;;;;;;1999.90;859.90;;;11.10;99.90;;;;;;5051826;28;20205;-52
2023/01/01 04:42:09;;;;;;;1999.90;593.13;;;11.00;99.90;;;;;;5049862;28;20216;-51
2023/01/01 04:44:37;;;;;;;1999.90;639.60;;;11.00;99.90;;;;;;5051352;28;20299;-51
2023/01/01 04:47:07;;;;;;;1999.90;549.53;;;11.00;99.90;;;;;;5052257;28;20206;-52
2023/01/01 04:49:36;;;;;;;1999.90;451.03;;;11.00;99.90;;;;;;5051592;28;20301;-50
2023/01/01 04:52:05;;;;;;;1999.90;753.03;;;11.00;99.90;;;;;;5050523;28;20205;-52
2023/01/01 04:54:34;;;;;;;1999.90;664.90;;;11.00;99.90;;;;;;5051459;28;20264;-51
2023/01/01 04:57:02;;;;;;;1999.90;597.97;;;11.00;99.90;;;;;;5051328;28;20327;-52
2023/01/01 04:59:30;;;;;;;1999.90;498.00;;;11.00;99.90;;;;;;5051733;28;20205;-52
2023/01/01 05:01:59;;;;;;;1999.90;662.90;;;11.00;99.90;;;;;;5050680;28;20214;-52
2023/01/01 05:04:27;;;;;;;1999.90;413.53;;;10.90;99.90;;;;;;5051036;28;20301;-52
2023/01/01 05:06:55;;;;;;;1999.90;518.07;;;10.90;99.90;;;;;;5051167;28;20263;-51
2023/01/01 05:09:25;;;;;;;1999.90;508.40;;;10.90;99.90;;;;;;5050187;28;20263;-51
2023/01/01 05:11:54;;;;;;;1999.90;467.57;;;10.80;99.90;;;;;;5050454;28;20283;-50
2023/01/01 05:14:23;;;;;;;1999.90;527.40;;;10.80;99.90;;;;;;5038103;28;20205;-51
2023/01/01 05:16:52;;;;;;;1999.90;523.33;;;10.80;99.90;;;;;;5050292;28;20234;-51
2023/01/01 05:19:20;;;;;;;1625.33;317.53;;;10.80;99.90;;;;;;5050977;28;20198;-51
2023/01/01 05:21:48;;;;;;;1999.90;577.97;;;10.70;99.90;;;;;;5050974;28;20240;-51
2023/01/01 05:24:16;;;;;;;1435.90;231.03;;;10.70;99.90;;;;;;5050017;28;20209;-51
2023/01/01 05:26:46;;;;;;;1999.90;637.13;;;10.70;99.90;;;;;;5040244;28;20288;-51
2023/01/01 05:29:14;;;;;;;1999.90;669.13;;;10.70;99.90;;;;;;5050833;28;20274;-51
2023/01/01 05:31:45;;;;;;;1999.90;776.60;;;10.70;99.90;;;;;;5050649;28;20279;-53
2023/01/01 05:34:14;;;;;;;1999.90;530.73;;;10.70;99.90;;;;;;5050479;28;20213;-52
2023/01/01 05:36:42;;;;;;;1999.90;521.63;;;10.70;99.90;;;;;;5050380;28;20698;-52
2023/01/01 05:39:12;;;;;;;1999.90;569.17;;;10.70;99.90;;;;;;5050631;28;20259;-51
2023/01/01 05:41:40;;;;;;;1999.90;702.73;;;10.70;99.90;;;;;;5032457;28;20214;-52
2023/01/01 05:44:10;;;;;;;1999.90;714.37;;;10.70;99.90;;;;;;5043666;28;20214;-51
2023/01/01 05:46:39;;;;;;;1999.90;677.13;;;10.60;99.90;;;;;;5050374;28;20237;-52
2023/01/01 05:49:09;;;;;;;1730.57;339.03;;;10.60;99.90;;;;;;5050594;28;20248;-52
2023/01/01 05:51:37;;;;;;;1232.23;282.00;;;10.70;99.90;;;;;;5050707;28;20649;-52
2023/01/01 05:54:05;;;;;;;1999.90;613.10;;;10.70;99.90;;;;;;5050562;28;20213;-52
2023/01/01 05:56:33;;;;;;;1999.90;555.50;;;10.70;99.90;;;;;;5048349;28;20320;-51
2023/01/01 05:59:01;;;;;;;1719.80;351.87;;;10.70;99.90;;;;;;5031645;28;20206;-51
2023/01/01 06:01:31;;;;;;;1999.90;522.10;;;10.70;99.90;;;;;;5031193;28;20301;-51
2023/01/01 06:04:00;;;;;;;1999.90;578.43;;;10.70;99.90;;;;;;5031608;28;20663;-52
2023/01/01 06:06:31;;;;;;;1999.90;521.73;;;10.70;99.90;;;;;;5030323;28;20280;-51
2023/01/01 06:09:03;;;;;;;1838.83;272.80;;;10.70;99.90;;;;;;5035548;28;20221;-51
2023/01/01 06:11:32;;;;;;;1974.73;397.47;;;10.80;99.90;;;;;;5037386;28;20234;-51
2023/01/01 06:14:01;;;;;;;1999.90;650.90;;;10.80;99.90;;;;;;5028372;28;20206;-51
2023/01/01 06:16:31;;;;;;;1999.90;720.33;;;10.70;99.90;;;;;;5034048;28;20234;-50
2023/01/01 06:19:00;;;;;;;1999.90;543.17;;;10.70;99.90;;;;;;5032116;28;20230;-50
2023/01/01 06:21:29;;;;;;;1999.90;390.87;;;10.70;99.90;;;;;;5030838;28;20230;-51
2023/01/01 06:23:58;;;;;;;1999.90;420.77;;;10.80;99.90;;;;;;5029839;28;20237;-52
2023/01/01 06:26:28;;;;;;;1999.90;459.57;;;10.80;99.90;;;;;;5029321;28;20222;-51
2023/01/01 06:28:57;;;;;;;1999.90;587.77;;;10.90;99.90;;;;;;5031701;28;20198;-51
2023/01/01 06:31:26;;;;;;;1999.90;471.27;;;10.90;99.90;;;;;;5036434;28;20205;-51
2023/01/01 06:33:55;;;;;;;1966.27;370.00;;;10.90;99.90;;;;;;5032821;28;20210;-50
2023/01/01 06:36:25;;;;;;;1999.90;388.73;;;10.90;99.90;;;;;;5032776;28;20731;-51
2023/01/01 06:38:55;;;;;;;1999.90;548.40;;;11.00;99.90;;;;;;5038523;28;20292;-51
2023/01/01 06:41:26;;;;;;;1999.90;586.57;;;11.00;99.90;;;;;;5047631;28;20209;-50
2023/01/01 06:43:55;;;;;;;1999.90;547.73;;;10.90;99.90;;;;;;5048476;28;20328;-51
2023/01/01 06:46:24;;;;;;;1999.90;593.40;;;10.90;99.90;;;;;;5048517;28;20344;-52
2023/01/01 06:48:57;;;;;;;1999.90;749.90;;;10.80;99.90;;;;;;5049520;28;20208;-51
2023/01/01 06:51:27;;;;;;;1999.90;619.17;;;10.70;99.90;;;;;;5049244;28;20198;-50
2023/01/01 06:53:57;;;;;;;1999.90;355.50;;;10.70;99.90;;;;;;5049202;28;20201;-51
2023/01/01 06:56:26;;;;;;;1550.10;298.20;;;10.70;99.90;;;;;;5047904;28;20237;-52
2023/01/01 06:58:54;;;;;;;1999.90;625.17;;;10.70;99.90;;;;;;5048764;28;20229;-52
2023/01/01 07:01:24;;;;;;;1999.90;686.90;;;10.70;99.90;;;;;;5048730;28;20679;-52
2023/01/01 07:03:54;;;;;;;1999.90;350.93;;;10.70;99.90;;;;;;5048622;28;20241;-52
2023/01/01 07:06:25;;;;;;;1999.90;498.10;;;10.70;99.90;;;;;;5048559;28;20672;-52
2023/01/01 07:08:53;;;;;;;1999.90;715.77;;;10.70;99.90;;;;;;5048540;28;20241;-51
2023/01/01 07:11:21;;;;;;;1999.90;742.47;;;10.80;99.90;;;;;;5047978;28;20289;-51
2023/01/01 07:13:49;;;;;;;1999.90;553.13;;;10.80;99.90;;;;;;5048113;28;20233;-51
2023/01/01 07:16:17;;;;;;;1999.90;453.87;;;10.80;99.90;;;;;;5046350;28;20225;-51
2023/01/01 07:18:47;;;;;;;1779.27;304.17;;;10.80;99.90;;;;;;5040226;28;20237;-51
2023/01/01 07:21:40;;;;;;;1999.90;470.67;;;10.90;99.90;;;;;;5048672;28;20584;-51
2023/01/01 07:24:11;;;;;;;1999.90;494.73;;;10.90;99.90;;;;;;5036750;28;20339;-51
2023/01/01 07:26:39;;;;;;;1999.90;595.37;;;10.90;99.90;;;;;;5048823;28;20225;-52
2023/01/01 07:29:08;;;;;;;1999.90;434.07;;;11.00;99.90;;;;;;5048746;28;20259;-52
2023/01/01 07:31:38;;;;;;;1999.90;874.30;;;11.00;99.90;;;;;;5048794;28;20214;-52
2023/01/01 07:34:07;;;;;;;1999.90;786.00;;;10.90;99.90;;;;;;5034689;28;20239;-52
2023/01/01 07:36:37;;;;;;;1999.90;830.50;;;11.00;99.90;;;;;;5048253;28;20839;-52
2023/01/01 07:39:05;;;;;;;1999.90;332.23;;;11.00;99.90;;;;;;5048654;28;20709;-51
2023/01/01 07:41:33;;;;;;;1812.57;352.40;;;11.00;99.90;;;;;;5048661;28;20746;-51
2023/01/01 07:44:01;;;;;;;1143.97;246.40;;;11.00;99.90;;;;;;5036177;28;20205;-51
2023/01/01 07:46:29;;;;;;;1999.90;721.50;;;11.00;99.90;;;;;;5048482;28;20237;-52
2023/01/01 07:48:57;;;;;;;1570.10;391.83;;;11.00;99.90;;;;;;5051512;28;20292;-52
2023/01/01 07:51:26;;;;;;;1626.77;289.33;;;11.10;99.90;;;;;;5052670;28;20292;-52
2023/01/01 07:53:56;;;;;;;1621.03;344.53;;;11.10;99.90;;;;;;5052310;28;20217;-53
2023/01/01 07:56:34;;;;;;;1621.33;321.30;;;11.20;99.90;;;;;;5052444;28;20264;-51
2023/01/01 07:59:02;;;;;;;1999.90;673.37;;;11.30;99.90;;;;;;5052357;28;20240;-53
2023/01/01 08:01:30;;;;;;;1999.90;654.10;;;11.40;99.90;;;;;;5052249;28;20742;-52
2023/01/01 08:03:58;;;;;;;1999.90;672.37;;;11.50;99.90;;;;;;5052358;28;20206;-52
2023/01/01 08:06:26;;;;;;;1999.90;558.80;;;11.50;99.90;;;;;;5034727;28;20218;-51
2023/01/01 08:08:56;;;;;;;1999.90;759.87;;;11.60;99.90;;;;;;5033815;28;20210;-51
2023/01/01 08:11:24;;;;;;;1999.90;927.50;;;11.60;99.90;;;;;;5034121;28;20206;-52
2023/01/01 08:13:52;;;;;;;1999.90;708.33;;;11.60;99.90;;;;;;5034408;28;20249;-53
2023/01/01 08:16:20;;;;;;;1999.90;789.23;;;11.60;99.90;;;;;;5036341;28;20223;-53
2023/01/01 08:18:49;;;;;;;1999.90;679.67;;;11.70;99.90;;;;;;5034447;28;20261;-51
2023/01/01 08:21:17;;;;;;;1999.90;823.37;;;11.70;99.90;;;;;;5036282;28;20211;-52
2023/01/01 08:23:45;;;;;;;1999.90;801.43;;;11.80;99.90;;;;;;5031559;28;20214;-52
2023/01/01 08:26:16;;;;;;;1999.90;648.90;;;11.80;99.90;;;;;;5038954;28;20276;-51
2023/01/01 08:28:45;;;;;;;1999.90;867.67;;;11.90;99.90;;;;;;5033343;28;20202;-51
2023/01/01 08:31:16;;;;;;;1999.90;626.63;;;11.90;99.90;;;;;;5049621;28;20608;-52
2023/01/01 08:33:44;;;;;;;1999.90;700.80;;;12.00;99.90;;;;;;5050825;28;20209;-52
2023/01/01 08:36:15;;;;;;;1999.90;704.43;;;12.00;99.90;;;;;;5048740;28;20308;-52
2023/01/01 08:38:43;;;;;;;1999.90;916.40;;;12.10;99.90;;;;;;5050579;28;20213;-51
2023/01/01 08:41:11;;;;;;;1999.90;791.23;;;12.00;99.90;;;;;;5042053;28;20716;-51
2023/01/01 08:43:41;;;;;;;1999.90;792.90;;;12.00;99.90;;;;;;5047543;28;20206;-53
2023/01/01 08:46:09;;;;;;;1999.90;687.77;;;12.00;99.90;;;;;;5043670;28;20305;-52
2023/01/01 08:48:37;;;;;;;1999.90;480.83;;;12.00;99.90;;;;;;5033818;28;20206;-51
2023/01/01 08:51:05;;;;;;;1999.90;910.33;;;12.00;99.90;;;;;;5041890;28;20272;-51
2023/01/01 08:53:34;;;;;;;1999.90;987.30;;;12.00;99.90;;;;;;5047217;28;20205;-52
2023/01/01 08:56:04;;;;;;;1999.90;887.47;;;12.00;99.90;;;;;;5047745;28;20278;-51
2023/01/01 08:58:33;;;;;;;1999.90;836.00;;;12.00;99.90;;;;;;5045194;28;20221;-51
2023/01/01 09:01:03;;;;;;;1999.90;682.63;;;12.00;99.90;;;;;;5048208;28;20671;-52
2023/01/01 09:03:31;;;;;;;1999.90;675.70;;;12.00;99.90;;;;;;5048800;28;20596;-51
2023/01/01 09:05:59;;;;;;;1999.90;661.60;;;12.10;99.90;;;;;;5050510;28;20271;-51
2023/01/01 09:08:28;;;;;;;1999.90;870.23;;;12.10;99.90;;;;;;5050910;28;20647;-51
2023/01/01 09:10:58;;;;;;;1999.90;527.17;;;12.10;99.90;;;;;;5048241;28;20201;-51
2023/01/01 09:13:27;;;;;;;1999.90;636.73;;;12.10;99.90;;;;;;5049829;28;20237;-52
2023/01/01 09:15:55;;;;;;;1999.90;641.53;;;12.10;99.90;;;;;;5050228;28;20308;-52
2023/01/01 09:18:25;;;;;;;1999.90;718.03;;;12.20;99.90;;;;;;5050318;28;20210;-52
2023/01/01 09:20:53;;;;;;;1999.90;725.30;;;12.10;99.90;;;;;;5049926;28;20241;-52
2023/01/01 09:23:21;;;;;;;1999.90;744.83;;;12.20;99.90;;;;;;5048756;28;20958;-51
2023/01/01 09:25:49;;;;;;;1999.90;616.93;;;12.20;99.90;;;;;;5048863;28;20312;-52
2023/01/01 09:28:17;;;;;;;1999.90;667.20;;;12.20;99.90;;;;;;5048355;28;20620;-51
2023/01/01 09:30:52;;;;;;;1999.90;583.80;;;12.30;99.90;;;;;;5049111;28;20271;-52
2023/01/01 09:33:20;;;;;;;1999.90;815.60;;;12.30;99.90;;;;;;5048900;28;20260;-52
2023/01/01 09:35:50;;;;;;;1999.90;658.37;;;12.30;99.90;;;;;;5049126;28;20279;-52
2023/01/01 09:38:18;;;;;;;1999.90;532.90;;;12.40;99.90;;;;;;5049357;28;20237;-52
2023/01/01 09:40:55;;;;;;;1999.90;719.30;;;12.40;99.90;;;;;;5049691;28;20773;-52
2023/01/01 09:43:34;;;;;;;1999.90;912.77;;;12.40;99.90;;;;;;5049971;28;20233;-51
2023/01/01 09:46:05;;;;;;;1999.90;662.40;;;12.40;99.90;;;;;;5049788;28;20222;-51
2023/01/01 09:48:37;;;;;;;1999.90;517.63;;;12.40;99.90;;;;;;5040364;28;20689;-51
2023/01/01 09:51:13;;;;;;;1999.90;794.47;;;12.40;99.90;;;;;;5050480;28;20308;-52
2023/01/01 09:53:45;;;;;;;1999.90;460.77;;;12.40;99.90;;;;;;5037478;28;20294;-51
2023/01/01 09:56:17;;;;;;;1999.90;905.07;;;12.50;99.90;;;;;;5047966;28;20635;-52
2023/01/01 09:58:45;;;;;;;1999.90;665.60;;;12.50;99.90;;;;;;5046892;28;20233;-52
2023/01/01 10:01:21;;;;;;;1999.90;746.20;;;12.50;99.90;;;;;;5043560;28;20205;-51
2023/01/01 10:03:59;;;;;;;1999.90;387.73;;;12.50;99.90;;;;;;5047856;28;20207;-51
2023/01/01 10:06:32;;;;;;;1999.90;595.43;;;12.60;99.90;;;;;;5049028;28;20674;-51
2023/01/01 10:09:11;;;;;;;1999.90;672.83;;;12.70;99.90;;;;;;5043971;28;20228;-52
2023/01/01 10:11:48;;;;;;;1999.90;627.37;;;12.70;99.90;;;;;;5046439;28;20201;-52
2023/01/01 10:14:23;;;;;;;1999.90;897.20;;;12.60;99.90;;;;;;5048114;28;20297;-52
2023/01/01 10:16:56;;;;;;;1999.90;393.13;;;12.60;99.90;;;;;;5049478;28;20332;-52
2023/01/01 10:19:33;;;;;;;1999.90;719.53;;;12.60;99.90;;;;;;5047723;28;20225;-51
2023/01/01 10:22:08;;;;;;;1999.90;551.37;;;12.60;99.90;;;;;;5048887;28;20288;-51
2023/01/01 10:24:42;;;;;;;1999.90;416.53;;;12.50;99.90;;;;;;5048823;28;20304;-52
2023/01/01 10:27:22;;;;;;;1912.47;359.17;;;12.60;99.90;;;;;;5049130;28;20236;-51
2023/01/01 10:29:52;;;;;;;1999.90;559.53;;;12.60;99.90;;;;;;5046684;28;20198;-52
2023/01/01 10:32:31;;;;;;;1502.00;311.20;;;12.60;99.90;;;;;;5048806;28;20294;-51
2023/01/01 10:35:00;;;;;;;1999.90;731.23;;;12.50;99.90;;;;;;5041503;28;20308;-52
2023/01/01 10:37:35;;;;;;;1999.90;518.93;;;12.50;99.90;;;;;;5046630;28;20252;-51
2023/01/01 10:40:07;;;;;;;1999.90;537.57;;;12.50;99.90;;;;;;5047050;28;20209;-51
2023/01/01 10:42:35;;;;;;;1999.90;653.17;;;12.50;99.90;;;;;;5046512;28;20214;-52
2023/01/01 10:45:04;;;;;;;1999.90;638.20;;;12.50;99.90;;;;;;5047543;28;20248;-52
2023/01/01 10:47:32;;;;;;;1999.90;718.23;;;12.50;99.90;;;;;;5047621;28;20297;-52
2023/01/01 10:50:06;;;;;;;1999.90;422.70;;;12.50;99.90;;;;;;5046263;28;20232;-51
2023/01/01 10:52:39;;;;;;;1999.90;757.50;;;12.50;99.90;;;;;;5047381;28;20267;-51
2023/01/01 10:55:20;;;;;;;1999.90;687.63;;;12.50;99.90;;;;;;5048691;28;20232;-52
2023/01/01 10:57:48;;;;;;;1999.90;554.40;;;12.50;99.90;;;;;;5046703;28;20292;-50
2023/01/01 11:00:22;;;;;;;1999.90;535.47;;;12.50;99.90;;;;;;5048307;28;20217;-51
2023/01/01 11:03:12;;;;;;;1999.90;632.43;;;12.60;99.90;;;;;;5048457;28;20233;-51
2023/01/01 11:05:40;;;;;;;1999.90;829.17;;;12.60;99.90;;;;;;5046882;28;20221;-50
2023/01/01 11:08:19;;;;;;;1999.90;596.97;;;12.60;99.90;;;;;;5048229;28;20217;-51
2023/01/01 11:10:51;;;;;;;1999.90;702.70;;;12.60;99.90;;;;;;5049105;28;20197;-52
2023/01/01 11:13:21;;;;;;;1999.90;629.00;;;12.70;99.90;;;;;;5048498;28;20297;-52
2023/01/01 11:15:49;;;;;;;1999.90;622.43;;;12.70;99.90;;;;;;5048456;28;20230;-50
2023/01/01 11:18:22;;;;;;;1999.90;768.87;;;12.80;99.90;;;;;;5047846;28;20725;-51
2023/01/01 11:20:54;;;;;;;1999.90;584.60;;;12.70;99.90;;;;;;5047841;28;20655;-52
2023/01/01 11:23:32;;;;;;;1999.90;772.90;;;12.80;99.90;;;;;;5047317;28;20204;-52
2023/01/01 11:26:18;;;;;;;1999.90;662.10;;;12.70;99.90;;;;;;5048433;28;20221;-53
2023/01/01 11:29:00;;;;;;;1999.90;685.10;;;12.70;99.90;;;;;;5047874;28;20213;-51
2023/01/01 11:31:31;;;;;;;1847.03;432.20;;;12.70;99.90;;;;;;5048508;28;20281;-52
2023/01/01 11:33:59;;;;;;;1999.90;798.40;;;12.70;99.90;;;;;;5046983;28;20240;-52
2023/01/01 11:36:29;;;;;;;1999.90;511.10;;;12.70;99.90;;;;;;5044015;28;20261;-52
2023/01/01 11:39:22;;;;;;;1999.90;962.30;;;12.80;99.90;;;;;;5047303;28;20288;-52
2023/01/01 11:41:52;;;;;;;1999.90;592.93;;;12.80;99.90;;;;;;5045566;28;20802;-52
2023/01/01 11:44:34;;;;;;;1999.90;706.80;;;12.80;99.90;;;;;;5047081;28;20301;-50
2023/01/01 11:47:03;;;;;;;1361.00;251.87;;;12.80;99.90;;;;;;5046987;28;20247;-51
2023/01/01 11:49:32;;;;;;;1999.90;573.37;;;12.80;99.90;;;;;;5047810;28;20213;-52
2023/01/01 11:52:00;;;;;;;1999.90;757.80;;;12.90;99.90;;;;;;5047630;28;20202;-51
2023/01/01 11:54:34;;;;;;;1597.23;358.73;;;12.90;99.90;;;;;;5044037;28;20333;-52
2023/01/01 11:57:11;;;;;;;1910.87;404.73;;;12.90;99.90;;;;;;5043383;28;20300;-52
2023/01/01 11:59:46;;;;;;;1999.90;767.50;;;12.90;99.90;;;;;;5047551;28;20255;-51
2023/01/01 12:02:18;;;;;;;1999.90;742.37;;;12.90;99.90;;;;;;5047813;28;20248;-51
2023/01/01 12:04:51;;;;;;;1999.90;719.13;;;12.90;99.90;;;;;;5047967;28;20234;-52
2023/01/01 12:07:24;;;;;;;1999.90;542.00;;;12.90;99.90;;;;;;5048140;28;20233;-51
2023/01/01 12:10:00;;;;;;;1999.90;657.70;;;12.80;99.90;;;;;;5044929;28;20209;-52
2023/01/01 12:12:34;;;;;;;1999.90;822.70;;;12.80;99.90;;;;;;5047142;28;20220;-52
2023/01/01 12:15:06;;;;;;;1999.90;772.13;;;12.70;99.90;;;;;;5047374;28;20230;-52
2023/01/01 12:17:39;;;;;;;1999.90;576.23;;;12.80;99.90;;;;;;5048229;28;20272;-52
2023/01/01 12:20:16;;;;;;;1999.90;607.77;;;12.80;99.90;;;;;;5047782;28;20248;-51